Time;durP1;ratioP1;P1;durP2;ratioP2;P2;SDS_P1;SDS_P2;PMS_P1;PMS_P2;Temp;Humidity;BMP_temperature;BMP_pressure;BME280_temperature;BME280_humidity;BME280_pressure;Samples;Min_cycle;Max_cycle;Signal;HPM_P1;HPM_P2
2022/06/24 00:00:40;;;;;;;14.95;9.27;;;;;;;22.15;85.64;100679.53;5053146;28;20100;-44
2022/06/24 00:03:06;;;;;;;16.05;9.30;;;;;;;22.20;86.02;100676.94;5052596;28;20020;-42
2022/06/24 00:05:34;;;;;;;16.70;10.30;;;;;;;22.11;87.50;100662.72;5052295;28;20065;-44
2022/06/24 00:08:00;;;;;;;17.20;10.95;;;;;;;22.14;88.85;100652.44;5052635;28;20041;-43
2022/06/24 00:10:32;;;;;;;19.80;10.73;;;;;;;22.10;90.96;100646.16;5053510;28;20027;-44
2022/06/24 00:12:57;;;;;;;17.27;11.55;;;;;;;22.03;91.24;100638.50;5052976;28;20066;-44
2022/06/24 00:15:26;;;;;;;19.15;11.50;;;;;;;22.03;92.20;100635.09;5053244;28;20025;-44
2022/06/24 00:17:52;;;;;;;16.13;11.98;;;;;;;21.97;91.95;100604.59;5053285;28;20371;-44
2022/06/24 00:20:19;;;;;;;14.63;11.32;;;;;;;21.91;92.50;100598.56;5052813;28;20028;-44
2022/06/24 00:22:50;;;;;;;19.08;12.27;;;;;;;21.81;93.71;100590.69;5052274;28;20035;-43
2022/06/24 00:25:24;;;;;;;16.40;11.55;;;;;;;21.58;92.99;100579.69;5053429;28;20448;-44
2022/06/24 00:28:09;;;;;;;19.10;11.93;;;;;;;21.70;94.46;100568.09;5052568;28;20348;-44
2022/06/24 00:30:41;;;;;;;15.13;11.23;;;;;;;21.79;93.81;100553.34;5054288;28;20028;-44
2022/06/24 00:33:13;;;;;;;20.27;10.98;;;;;;;21.86;92.18;100559.88;5056414;28;20028;-44
2022/06/24 00:35:47;;;;;;;14.80;10.55;;;;;;;21.71;89.65;100561.78;5056274;28;20472;-44
2022/06/24 00:38:33;;;;;;;14.75;9.82;;;;;;;21.69;90.84;100567.28;5056026;28;20025;-44
2022/06/24 00:41:12;;;;;;;17.10;9.70;;;;;;;21.60;90.40;100571.50;5056038;28;20021;-44
2022/06/24 00:43:40;;;;;;;15.18;9.73;;;;;;;21.68;91.12;100568.34;5056514;28;20020;-43
2022/06/24 00:46:23;;;;;;;15.23;9.30;;;;;;;21.62;90.77;100554.44;5055437;28;20031;-44
2022/06/24 00:48:51;;;;;;;14.30;9.13;;;;;;;21.57;91.85;100543.13;5055871;28;20021;-44
2022/06/24 00:51:18;;;;;;;14.98;9.18;;;;;;;21.46;91.14;100534.47;5055785;28;20032;-44
2022/06/24 00:53:44;;;;;;;13.25;8.68;;;;;;;21.56;92.52;100534.47;5056065;28;20397;-43
2022/06/24 00:56:12;;;;;;;12.73;8.25;;;;;;;21.67;92.09;100527.34;5056044;28;20463;-44
2022/06/24 00:58:38;;;;;;;13.80;7.30;;;;;;;21.63;90.34;100518.41;5055935;28;20513;-44
2022/06/24 01:01:04;;;;;;;12.43;7.13;;;;;;;21.53;91.44;100502.66;5055628;28;20025;-44
2022/06/24 01:03:40;;;;;;;12.02;7.38;;;;;;;21.51;91.31;100495.03;5056098;28;20033;-44
2022/06/24 01:06:07;;;;;;;13.02;7.50;;;;;;;21.45;90.76;100501.34;5055467;28;20041;-43
2022/06/24 01:08:32;;;;;;;15.70;8.50;;;;;;;21.47;92.95;100496.63;5055683;28;20078;-44
2022/06/24 01:10:57;;;;;;;13.57;7.95;;;;;;;21.45;92.40;100485.56;5055962;28;20108;-44
2022/06/24 01:13:23;;;;;;;16.20;7.78;;;;;;;21.40;92.90;100501.34;5055436;28;20024;-44
2022/06/24 01:15:48;;;;;;;12.93;7.60;;;;;;;21.52;90.68;100543.94;5054146;28;20025;-44
2022/06/24 01:18:14;;;;;;;13.65;7.30;;;;;;;21.56;89.29;100560.75;5055565;28;20155;-44
2022/06/24 01:20:39;;;;;;;13.82;7.85;;;;;;;21.51;90.81;100578.38;5055220;28;20025;-43
2022/06/24 01:23:04;;;;;;;12.25;7.45;;;;;;;21.53;91.66;100592.03;5055180;28;20020;-43
2022/06/24 01:25:31;;;;;;;12.95;7.07;;;;;;;21.68;89.29;100614.91;5055153;28;20030;-43
2022/06/24 01:27:57;;;;;;;14.10;7.38;;;;;;;21.66;89.18;100648.56;5055042;28;20105;-46
2022/06/24 01:30:22;;;;;;;22.25;7.97;;;;;;;21.62;89.14;100693.00;5055525;28;20456;-42
2022/06/24 01:32:48;;;;;;;16.00;8.07;;;;;;;21.21;92.54;100715.78;5055309;28;20017;-43
2022/06/24 01:35:14;;;;;;;17.38;7.85;;;;;;;20.86;95.62;100756.63;5055244;28;20032;-44
2022/06/24 01:37:39;;;;;;;23.48;11.38;;;;;;;20.35;100.00;100759.72;5055280;28;20422;-43
2022/06/24 01:40:05;;;;;;;33.90;13.45;;;;;;;20.19;100.00;100729.97;5054943;28;20051;-44
2022/06/24 01:42:31;;;;;;;25.52;13.90;;;;;;;20.06;100.00;100725.94;5054736;28;20025;-43
2022/06/24 01:44:56;;;;;;;19.15;11.57;;;;;;;19.83;100.00;100734.16;5055116;28;20483;-44
2022/06/24 01:47:21;;;;;;;24.80;11.90;;;;;;;19.72;100.00;100742.97;5054745;28;20480;-44
2022/06/24 01:49:46;;;;;;;15.88;10.05;;;;;;;19.57;100.00;100773.22;5055029;28;20044;-44
2022/06/24 01:52:12;;;;;;;11.75;6.30;;;;;;;19.13;100.00;100775.06;5054662;28;20050;-45
2022/06/24 01:54:37;;;;;;;11.48;4.57;;;;;;;18.94;100.00;100779.81;5054923;28;20017;-44
2022/06/24 01:57:03;;;;;;;6.78;2.80;;;;;;;18.66;100.00;100778.88;5053189;28;20021;-45
2022/06/24 01:59:28;;;;;;;7.72;3.00;;;;;;;18.54;100.00;100757.25;5054869;28;20102;-45
2022/06/24 02:01:53;;;;;;;7.40;3.35;;;;;;;18.69;100.00;100744.38;5054685;28;20028;-45
2022/06/24 02:04:19;;;;;;;5.25;2.63;;;;;;;18.67;100.00;100741.22;5054948;28;20021;-45
2022/06/24 02:06:44;;;;;;;10.05;2.90;;;;;;;18.59;100.00;100733.78;5054228;28;20124;-45
2022/06/24 02:09:09;;;;;;;8.10;2.55;;;;;;;18.68;100.00;100702.75;5053203;28;20028;-44
2022/06/24 02:14:19;;;;;;;7.18;2.40;;;;;;;18.49;100.00;100662.97;5055083;28;20047;-45
2022/06/24 02:16:46;;;;;;;7.82;2.67;;;;;;;18.57;100.00;100656.53;5054516;28;20021;-45
2022/06/24 02:19:11;;;;;;;7.40;2.80;;;;;;;18.53;100.00;100665.88;5054424;28;20024;-46
2022/06/24 02:21:37;;;;;;;7.97;2.70;;;;;;;18.53;100.00;100668.50;5054807;28;20020;-45
2022/06/24 02:24:03;;;;;;;6.47;2.50;;;;;;;18.44;100.00;100645.41;5054082;28;20519;-45
2022/06/24 02:26:28;;;;;;;6.05;2.90;;;;;;;18.56;100.00;100623.53;5054507;28;20021;-44
2022/06/24 02:28:55;;;;;;;8.43;2.88;;;;;;;18.53;100.00;100606.53;5053932;28;20024;-46
2022/06/24 02:31:21;;;;;;;7.65;3.40;;;;;;;18.37;100.00;100620.44;5054086;28;20029;-45
2022/06/24 02:33:49;;;;;;;11.10;3.25;;;;;;;18.41;100.00;100622.34;5053838;28;20098;-44
2022/06/24 02:36:15;;;;;;;6.03;3.28;;;;;;;18.36;100.00;100609.19;5054325;28;20017;-45
2022/06/24 02:38:41;;;;;;;5.88;2.65;;;;;;;18.22;100.00;100615.81;5053859;28;20094;-44
2022/06/24 02:41:06;;;;;;;8.20;2.85;;;;;;;18.23;100.00;100625.22;5053754;28;20017;-45
2022/06/24 02:43:33;;;;;;;8.23;2.65;;;;;;;18.30;100.00;100619.81;5053288;28;20063;-44
2022/06/24 02:46:03;;;;;;;7.50;2.20;;;;;;;18.23;100.00;100622.59;5053588;28;20021;-45
2022/06/24 02:48:30;;;;;;;4.45;2.50;;;;;;;18.25;100.00;100625.78;5053650;28;20033;-45
2022/06/24 02:50:57;;;;;;;8.32;2.40;;;;;;;18.19;100.00;100616.28;5053625;28;20101;-46
2022/06/24 02:53:23;;;;;;;6.68;2.38;;;;;;;18.19;100.00;100611.84;5053145;28;20036;-46
2022/06/24 02:55:51;;;;;;;6.57;2.13;;;;;;;18.24;100.00;100605.88;5053581;28;20379;-45
2022/06/24 02:58:16;;;;;;;7.72;2.40;;;;;;;18.23;100.00;100615.53;5053461;28;20025;-45
2022/06/24 03:00:43;;;;;;;6.60;2.28;;;;;;;18.13;100.00;100618.03;5053472;28;20028;-46
2022/06/24 03:03:09;;;;;;;5.35;2.50;;;;;;;18.18;100.00;100614.69;5053652;28;20124;-46
2022/06/24 03:05:35;;;;;;;9.05;2.20;;;;;;;18.08;100.00;100609.34;5053265;28;20052;-46
2022/06/24 03:08:01;;;;;;;6.03;2.30;;;;;;;18.11;100.00;100604.41;5053313;28;20017;-44
2022/06/24 03:10:26;;;;;;;6.82;2.03;;;;;;;18.08;100.00;100601.50;5053607;28;20029;-46
2022/06/24 03:12:52;;;;;;;5.55;2.08;;;;;;;18.12;100.00;100605.19;5035443;28;20035;-45
2022/06/24 03:15:17;;;;;;;6.15;2.00;;;;;;;18.29;100.00;100615.63;5052066;28;20067;-45
2022/06/24 03:17:43;;;;;;;5.45;2.08;;;;;;;18.41;100.00;100619.72;5053777;28;20049;-46
2022/06/24 03:20:09;;;;;;;5.30;2.25;;;;;;;18.34;100.00;100619.09;5051982;28;20029;-45
2022/06/24 03:22:35;;;;;;;5.40;1.80;;;;;;;18.43;100.00;100629.94;5051946;28;20435;-46
2022/06/24 03:25:01;;;;;;;6.03;1.90;;;;;;;18.25;100.00;100637.03;5053188;28;20021;-45
2022/06/24 03:27:26;;;;;;;6.13;1.77;;;;;;;17.95;100.00;100653.09;5053098;28;20032;-46
2022/06/24 03:29:51;;;;;;;9.43;1.88;;;;;;;17.81;100.00;100670.13;5053510;28;20352;-45
2022/06/24 03:32:17;;;;;;;7.40;1.98;;;;;;;17.68;100.00;100667.78;5053417;28;20478;-44
2022/06/24 03:34:42;;;;;;;7.28;2.03;;;;;;;17.58;100.00;100661.34;5053200;28;20032;-45
2022/06/24 03:37:07;;;;;;;6.10;2.10;;;;;;;17.46;100.00;100660.59;5053208;28;20046;-44
2022/06/24 03:39:33;;;;;;;4.25;2.00;;;;;;;17.67;100.00;100667.00;5053043;28;20025;-45
2022/06/24 03:41:58;;;;;;;4.93;2.10;;;;;;;17.79;100.00;100669.56;5053299;28;20056;-45
2022/06/24 03:44:23;;;;;;;6.68;2.38;;;;;;;17.93;100.00;100665.59;5053096;28;20025;-45
2022/06/24 03:46:48;;;;;;;6.13;2.50;;;;;;;17.98;100.00;100651.78;5053290;28;20021;-45
2022/06/24 03:49:15;;;;;;;12.85;3.17;;;;;;;18.07;100.00;100612.97;5053592;28;20464;-46
2022/06/24 03:51:41;;;;;;;13.52;2.65;;;;;;;18.06;100.00;100590.47;5052994;28;20028;-45
2022/06/24 03:54:06;;;;;;;6.35;2.50;;;;;;;17.98;100.00;100570.75;5052939;28;20028;-45
2022/06/24 03:56:31;;;;;;;5.93;2.30;;;;;;;17.97;100.00;100562.13;5052930;28;20024;-44
2022/06/24 03:58:57;;;;;;;8.50;2.42;;;;;;;17.96;100.00;100550.09;5053201;28;20376;-44
2022/06/24 04:01:23;;;;;;;8.60;2.33;;;;;;;17.90;100.00;100543.22;5053115;28;20033;-49
2022/06/24 04:03:48;;;;;;;6.70;2.60;;;;;;;17.98;100.00;100544.59;5052804;28;20052;-45
2022/06/24 04:06:13;;;;;;;5.85;2.67;;;;;;;18.01;100.00;100531.88;5055652;28;20128;-45
2022/06/24 04:08:38;;;;;;;8.75;2.70;;;;;;;18.05;100.00;100532.16;5056908;28;20423;-45
2022/06/24 04:11:11;;;;;;;8.45;2.72;;;;;;;18.10;100.00;100534.06;5056851;28;20021;-44
2022/06/24 04:13:37;;;;;;;10.25;3.35;;;;;;;18.09;100.00;100533.25;5056782;28;20108;-44
2022/06/24 04:16:02;;;;;;;7.53;2.90;;;;;;;18.15;100.00;100536.72;5056428;28;20056;-46
2022/06/24 04:18:28;;;;;;;8.88;3.08;;;;;;;18.34;100.00;100542.44;5056736;28;20025;-46
2022/06/24 04:20:53;;;;;;;7.43;2.83;;;;;;;18.29;100.00;100556.25;5056415;28;20070;-44
2022/06/24 04:23:18;;;;;;;7.28;2.83;;;;;;;18.34;100.00;100560.75;5056442;28;20108;-45
2022/06/24 04:25:46;;;;;;;6.93;3.00;;;;;;;18.35;100.00;100551.88;5056476;28;20115;-45
2022/06/24 04:28:11;;;;;;;4.65;2.92;;;;;;;18.39;100.00;100550.38;5056194;28;20074;-44
2022/06/24 04:30:37;;;;;;;8.38;3.10;;;;;;;18.40;100.00;100542.25;5056261;28;20036;-46
2022/06/24 04:33:02;;;;;;;8.30;3.15;;;;;;;18.45;100.00;100552.78;5056477;28;20383;-46
2022/06/24 04:35:27;;;;;;;9.98;3.72;;;;;;;18.56;100.00;100558.13;5056495;28;20113;-45
2022/06/24 04:37:53;;;;;;;5.15;3.38;;;;;;;18.46;100.00;100567.44;5056359;28;20021;-45
2022/06/24 04:40:18;;;;;;;6.25;3.38;;;;;;;18.49;100.00;100556.47;5056914;28;20074;-44
2022/06/24 04:42:46;;;;;;;6.18;3.33;;;;;;;18.48;100.00;100554.91;5056270;28;20027;-46
2022/06/24 04:45:11;;;;;;;5.32;3.20;;;;;;;18.58;100.00;100559.47;5055956;28;20071;-46
2022/06/24 04:47:37;;;;;;;7.43;3.15;;;;;;;18.59;100.00;100558.44;5056357;28;20353;-45
2022/06/24 04:50:04;;;;;;;8.35;3.55;;;;;;;18.61;100.00;100563.41;5056123;28;20104;-45
2022/06/24 04:52:30;;;;;;;6.82;3.30;;;;;;;18.62;100.00;100565.00;5055818;28;20024;-46
2022/06/24 04:54:55;;;;;;;6.03;3.40;;;;;;;18.56;100.00;100565.97;5055736;28;20057;-46
2022/06/24 04:57:21;;;;;;;5.63;3.40;;;;;;;18.69;100.00;100573.44;5056028;28;20028;-45
2022/06/24 04:59:46;;;;;;;6.47;3.50;;;;;;;18.83;100.00;100568.66;5055920;28;20056;-46
2022/06/24 05:02:11;;;;;;;8.32;3.92;;;;;;;18.82;100.00;100569.69;5055899;28;20039;-45
2022/06/24 05:04:37;;;;;;;8.23;3.47;;;;;;;18.67;100.00;100560.63;5055567;28;20035;-45
2022/06/24 05:07:03;;;;;;;6.22;3.78;;;;;;;18.69;100.00;100569.00;5054125;28;20098;-46
2022/06/24 05:09:28;;;;;;;6.10;3.90;;;;;;;18.70;100.00;100575.03;5055409;28;20115;-46
2022/06/24 05:11:54;;;;;;;8.27;3.78;;;;;;;18.81;100.00;100565.47;5055630;28;20438;-46
2022/06/24 05:14:19;;;;;;;6.80;3.92;;;;;;;18.71;100.00;100574.00;5055430;28;20112;-46
2022/06/24 05:16:44;;;;;;;9.38;3.75;;;;;;;18.76;100.00;100568.84;5055204;28;20380;-45
2022/06/24 05:19:10;;;;;;;7.00;4.00;;;;;;;18.71;100.00;100560.91;5055367;28;20025;-46
2022/06/24 05:21:36;;;;;;;9.30;4.15;;;;;;;18.74;100.00;100549.97;5055299;28;20025;-46
2022/06/24 05:24:02;;;;;;;9.88;4.13;;;;;;;18.81;100.00;100555.81;5055424;28;20166;-45
2022/06/24 05:26:27;;;;;;;7.75;4.00;;;;;;;18.74;100.00;100555.22;5055050;28;20060;-45
2022/06/24 05:28:52;;;;;;;6.70;4.10;;;;;;;18.69;100.00;100555.91;5054989;28;20059;-45
2022/06/24 05:31:18;;;;;;;6.03;3.80;;;;;;;18.69;100.00;100553.28;5054993;28;20044;-46
2022/06/24 05:33:44;;;;;;;7.32;4.03;;;;;;;18.83;100.00;100547.72;5053805;28;20025;-45
2022/06/24 05:36:09;;;;;;;14.35;4.38;;;;;;;18.67;100.00;100539.69;5055208;28;20482;-46
2022/06/24 05:38:35;;;;;;;8.55;4.28;;;;;;;18.56;100.00;100531.94;5055191;28;20025;-45
2022/06/24 05:41:01;;;;;;;6.25;4.60;;;;;;;18.33;100.00;100522.56;5054830;28;20357;-46
2022/06/24 05:43:27;;;;;;;8.30;4.40;;;;;;;18.46;100.00;100515.09;5053499;28;20025;-45
2022/06/24 05:45:52;;;;;;;7.43;4.65;;;;;;;18.59;100.00;100513.94;5055274;28;20033;-49
2022/06/24 05:48:17;;;;;;;7.93;4.90;;;;;;;18.91;100.00;100521.88;5054834;28;20031;-46
2022/06/24 05:50:43;;;;;;;8.88;4.93;;;;;;;18.92;100.00;100527.91;5054595;28;20025;-46
2022/06/24 05:56:09;;;;;;;8.10;4.47;;;;;;;18.92;100.00;100525.28;5052350;28;20158;-46
2022/06/24 05:58:34;;;;;;;7.43;4.90;;;;;;;18.90;100.00;100527.34;5054249;28;20105;-45
2022/06/24 06:01:06;;;;;;;8.55;4.72;;;;;;;18.97;100.00;100530.56;5054910;28;20033;-46
2022/06/24 06:03:32;;;;;;;8.80;4.53;;;;;;;18.96;100.00;100554.38;5054272;28;20472;-46
2022/06/24 06:05:57;;;;;;;8.05;4.70;;;;;;;18.97;100.00;100562.00;5054328;28;20048;-46
2022/06/24 06:08:22;;;;;;;7.13;4.72;;;;;;;19.12;100.00;100553.47;5054440;28;20037;-46
2022/06/24 06:10:47;;;;;;;9.90;4.95;;;;;;;19.19;100.00;100563.75;5054242;28;20472;-49
2022/06/24 06:13:13;;;;;;;8.35;4.82;;;;;;;19.16;100.00;100562.41;5054040;28;20074;-46
2022/06/24 06:15:40;;;;;;;8.73;5.10;;;;;;;19.19;100.00;100564.56;5054327;28;20118;-46
2022/06/24 06:18:06;;;;;;;9.07;5.57;;;;;;;19.06;100.00;100572.81;5054377;28;20420;-46
2022/06/24 06:20:31;;;;;;;9.30;5.78;;;;;;;19.04;100.00;100570.41;5052666;28;20025;-46
2022/06/24 06:22:56;;;;;;;10.02;5.43;;;;;;;19.12;100.00;100577.84;5054115;28;20124;-46
2022/06/24 06:25:22;;;;;;;6.97;4.97;;;;;;;19.23;100.00;100567.47;5052706;28;20055;-45
2022/06/24 06:27:49;;;;;;;9.27;5.43;;;;;;;19.30;100.00;100574.03;5053303;28;20598;-45
2022/06/24 06:30:14;;;;;;;8.02;5.18;;;;;;;19.39;100.00;100572.56;5054344;28;20086;-45
2022/06/24 06:32:39;;;;;;;8.93;5.20;;;;;;;19.45;100.00;100581.25;5054145;28;20029;-46
2022/06/24 06:35:05;;;;;;;9.18;5.10;;;;;;;19.65;100.00;100580.66;5053899;28;20448;-45
2022/06/24 06:37:31;;;;;;;10.57;5.40;;;;;;;19.78;100.00;100585.44;5052522;28;20035;-45
2022/06/24 06:39:56;;;;;;;12.27;5.57;;;;;;;20.16;99.75;100585.38;5052093;28;20017;-44
2022/06/24 06:42:22;;;;;;;8.10;5.28;;;;;;;20.22;97.12;100579.13;5054033;28;20029;-44
2022/06/24 06:44:47;;;;;;;9.07;4.90;;;;;;;20.41;98.19;100588.13;5053923;28;20055;-44
2022/06/24 06:47:12;;;;;;;10.88;5.15;;;;;;;20.30;96.79;100597.00;5054064;28;20061;-45
2022/06/24 06:49:37;;;;;;;9.18;5.20;;;;;;;20.29;96.59;100595.44;5053510;28;20539;-45
2022/06/24 06:52:03;;;;;;;9.85;5.10;;;;;;;20.32;96.41;100594.13;5053479;28;20028;-45
2022/06/24 06:54:30;;;;;;;8.05;5.03;;;;;;;20.45;97.01;100594.44;5053709;28;20013;-45
2022/06/24 06:56:56;;;;;;;10.27;4.97;;;;;;;20.34;96.90;100602.53;5054113;28;20025;-45
2022/06/24 06:59:21;;;;;;;10.23;5.45;;;;;;;19.96;98.20;100601.81;5053276;28;20025;-45
2022/06/24 07:01:47;;;;;;;8.77;5.60;;;;;;;20.21;99.35;100594.06;5053800;28;20109;-45
2022/06/24 07:04:12;;;;;;;10.20;5.70;;;;;;;20.13;99.13;100599.03;5053395;28;20025;-44
2022/06/24 07:06:37;;;;;;;9.45;5.60;;;;;;;20.28;97.40;100606.97;5053015;28;20041;-44
2022/06/24 07:09:03;;;;;;;8.65;5.88;;;;;;;20.21;96.41;100604.56;5052422;28;20038;-43
2022/06/24 07:11:28;;;;;;;8.45;6.13;;;;;;;20.49;94.99;100599.97;5054135;28;20466;-45
2022/06/24 07:13:55;;;;;;;11.63;6.80;;;;;;;20.45;97.99;100588.41;5052695;28;20033;-46
2022/06/24 07:16:20;;;;;;;9.35;6.90;;;;;;;20.17;98.56;100598.28;5052065;28;20025;-45
2022/06/24 07:18:46;;;;;;;10.57;6.80;;;;;;;20.00;97.80;100603.69;5053219;28;20035;-45
2022/06/24 07:21:15;;;;;;;10.27;7.13;;;;;;;19.97;97.78;100606.81;5053241;28;20443;-44
2022/06/24 07:23:40;;;;;;;11.50;6.93;;;;;;;19.98;97.75;100604.97;5051867;28;20029;-47
2022/06/24 07:26:06;;;;;;;12.20;7.43;;;;;;;20.14;98.31;100606.66;5053551;28;20036;-47
2022/06/24 07:28:34;;;;;;;11.32;7.65;;;;;;;19.93;97.48;100605.72;5053777;28;20052;-45
2022/06/24 07:30:59;;;;;;;12.23;7.85;;;;;;;20.03;97.83;100597.94;5053121;28;20032;-45
2022/06/24 07:33:25;;;;;;;14.90;7.25;;;;;;;19.93;96.67;100603.09;5053152;28;20032;-47
2022/06/24 07:35:50;;;;;;;12.55;6.97;;;;;;;19.69;97.40;100594.03;5053406;28;20056;-46
2022/06/24 07:38:16;;;;;;;10.15;6.50;;;;;;;19.78;97.14;100595.16;5053669;28;20087;-45
2022/06/24 07:40:41;;;;;;;9.80;6.53;;;;;;;19.84;97.02;100594.91;5056835;28;20025;-45
2022/06/24 07:43:07;;;;;;;10.02;6.40;;;;;;;19.81;96.78;100598.03;5057441;28;20024;-45
2022/06/24 07:45:33;;;;;;;9.48;6.70;;;;;;;20.00;97.40;100597.66;5057469;28;20112;-45
2022/06/24 07:47:58;;;;;;;10.05;6.63;;;;;;;19.89;97.34;100596.00;5056805;28;20324;-45
2022/06/24 07:50:23;;;;;;;11.60;6.55;;;;;;;19.78;96.61;100601.19;5057428;28;20025;-45
2022/06/24 07:52:49;;;;;;;7.65;6.18;;;;;;;19.83;97.91;100610.91;5056968;28;20052;-44
2022/06/24 07:57:58;;;;;;;8.70;6.60;;;;;;;20.16;96.16;100607.16;5057294;28;20120;-45
2022/06/24 08:00:23;;;;;;;10.93;7.20;;;;;;;20.42;95.98;100612.53;5056819;28;20467;-46
2022/06/24 08:02:48;;;;;;;9.93;6.57;;;;;;;20.34;94.52;100613.84;5055515;28;20029;-45
2022/06/24 08:05:15;;;;;;;11.23;7.45;;;;;;;20.48;96.89;100612.31;5056843;28;20437;-46
2022/06/24 08:07:40;;;;;;;11.10;6.93;;;;;;;20.57;94.21;100611.81;5056867;28;20134;-45
2022/06/24 08:10:06;;;;;;;11.40;7.10;;;;;;;20.92;93.95;100606.69;5056692;28;20107;-45
2022/06/24 08:12:31;;;;;;;11.30;6.80;;;;;;;20.85;93.76;100606.13;5057015;28;20091;-45
2022/06/24 08:14:56;;;;;;;10.73;6.53;;;;;;;20.58;93.68;100605.56;5056778;28;20033;-45
2022/06/24 08:17:22;;;;;;;10.90;6.72;;;;;;;20.58;94.10;100616.84;5056605;28;20375;-46
2022/06/24 08:19:47;;;;;;;10.32;7.60;;;;;;;20.46;91.76;100611.00;5055776;28;20036;-44
2022/06/24 08:22:12;;;;;;;12.00;7.85;;;;;;;20.27;92.93;100613.25;5057019;28;20024;-45
2022/06/24 08:24:38;;;;;;;11.73;9.13;;;;;;;20.12;96.10;100605.31;5056548;28;20112;-42
2022/06/24 08:27:03;;;;;;;13.73;9.07;;;;;;;20.26;95.28;100598.56;5055524;28;20024;-44
2022/06/24 08:29:29;;;;;;;15.07;8.55;;;;;;;20.79;94.25;100603.75;5056781;28;20029;-46
2022/06/24 08:31:54;;;;;;;15.07;9.35;;;;;;;20.88;91.47;100604.84;5056468;28;20387;-43
2022/06/24 08:34:21;;;;;;;16.70;9.57;;;;;;;20.58;93.08;100603.72;5054907;28;20032;-44
2022/06/24 08:36:47;;;;;;;15.43;10.23;;;;;;;20.64;94.30;100607.13;5056181;28;20021;-46
2022/06/24 08:39:12;;;;;;;17.38;10.25;;;;;;;20.61;91.70;100603.19;5056011;28;20155;-46
2022/06/24 08:41:38;;;;;;;14.43;11.20;;;;;;;20.55;93.23;100604.22;5055852;28;20105;-45
2022/06/24 08:44:04;;;;;;;19.15;11.27;;;;;;;20.83;91.78;100607.44;5056060;28;20035;-46
2022/06/24 08:46:29;;;;;;;15.95;11.52;;;;;;;20.78;93.02;100604.81;5055850;28;20025;-46
2022/06/24 08:48:58;;;;;;;15.10;11.38;;;;;;;20.73;93.15;100592.47;5056285;28;20033;-45
2022/06/24 08:51:24;;;;;;;17.73;11.50;;;;;;;20.85;93.54;100593.00;5055272;28;20029;-45
2022/06/24 08:53:55;;;;;;;16.83;11.80;;;;;;;20.85;92.37;100593.00;5056184;28;20103;-45
2022/06/24 08:56:20;;;;;;;18.75;12.10;;;;;;;20.99;90.28;100597.78;5055795;28;20039;-45
2022/06/24 08:58:45;;;;;;;17.17;12.65;;;;;;;21.08;90.65;100596.97;5055945;28;20103;-45
2022/06/24 09:01:17;;;;;;;21.13;12.98;;;;;;;21.46;88.15;100600.19;5055855;28;20029;-46
2022/06/24 09:03:44;;;;;;;18.40;12.45;;;;;;;21.35;87.90;100590.72;5055768;28;20399;-45
2022/06/24 09:06:14;;;;;;;20.92;13.25;;;;;;;21.24;89.96;100594.38;5055358;28;20484;-43
2022/06/24 09:08:40;;;;;;;18.50;13.35;;;;;;;21.34;90.08;100591.75;5056090;28;20372;-45
2022/06/24 09:11:07;;;;;;;21.73;14.23;;;;;;;21.15;88.82;100592.28;5055372;28;20033;-44
2022/06/24 09:13:49;;;;;;;18.88;12.98;;;;;;;21.39;88.70;100599.66;5055567;28;20112;-44
2022/06/24 09:16:17;;;;;;;20.60;12.10;;;;;;;21.21;90.39;100590.44;5056119;28;20451;-46
2022/06/24 09:18:49;;;;;;;23.55;14.75;;;;;;;21.21;90.49;100587.03;5055863;28;20036;-45
2022/06/24 09:21:28;;;;;;;16.38;12.40;;;;;;;21.84;86.91;100598.06;5055602;28;20103;-45
2022/06/24 09:23:58;;;;;;;14.77;10.70;;;;;;;22.03;83.46;100598.25;5055190;28;20032;-44
2022/06/24 09:26:33;;;;;;;12.02;8.73;;;;;;;21.68;81.61;100596.50;5055345;28;20025;-45
2022/06/24 09:28:59;;;;;;;10.80;7.20;;;;;;;21.83;79.34;100599.88;5055441;28;20071;-44
2022/06/24 09:31:26;;;;;;;10.30;7.30;;;;;;;21.96;78.81;100590.66;5055325;28;20025;-44
2022/06/24 09:33:52;;;;;;;9.75;7.30;;;;;;;21.74;77.63;100583.06;5054809;28;20035;-45
2022/06/24 09:36:25;;;;;;;10.63;7.63;;;;;;;21.63;78.12;100595.44;5055256;28;20472;-44
2022/06/24 09:39:04;;;;;;;10.40;7.68;;;;;;;21.80;78.60;100592.50;5054874;28;20059;-44
2022/06/24 09:41:41;;;;;;;11.75;7.57;;;;;;;22.07;76.35;100592.19;5054957;28;20029;-45
2022/06/24 09:44:06;;;;;;;11.93;8.27;;;;;;;22.34;75.91;100601.59;5054708;28;20025;-45
2022/06/24 09:46:31;;;;;;;11.40;7.82;;;;;;;23.04;76.01;100590.19;5054966;28;20024;-44
2022/06/24 09:49:04;;;;;;;13.30;7.85;;;;;;;23.36;75.98;100593.13;5054724;28;20032;-44
2022/06/24 09:51:30;;;;;;;13.43;8.57;;;;;;;23.06;73.32;100593.34;5054707;28;20036;-43
2022/06/24 09:53:56;;;;;;;12.52;6.85;;;;;;;22.94;70.73;100598.94;5055362;28;20099;-44
2022/06/24 09:56:23;;;;;;;9.77;7.03;;;;;;;23.59;68.82;100590.78;5055577;28;20056;-44
2022/06/24 10:01:35;;;;;;;10.57;6.80;;;;;;;24.37;68.68;100595.00;5055000;28;20044;-44
2022/06/24 10:04:03;;;;;;;11.88;7.50;;;;;;;23.78;70.81;100601.47;5054552;28;20029;-42
2022/06/24 10:06:34;;;;;;;8.93;6.00;;;;;;;24.00;71.39;100598.34;5054610;28;20424;-44
2022/06/24 10:09:03;;;;;;;12.27;9.02;;;;;;;23.50;70.81;100613.56;5054371;28;20021;-45
2022/06/24 10:11:33;;;;;;;12.20;7.85;;;;;;;22.77;70.58;100616.94;5054270;28;20024;-46
2022/06/24 10:13:59;;;;;;;10.88;8.18;;;;;;;22.67;72.21;100609.88;5054164;28;20025;-43
2022/06/24 10:16:25;;;;;;;16.73;8.45;;;;;;;22.79;73.59;100607.72;5054169;28;20025;-44
2022/06/24 10:18:51;;;;;;;10.52;7.78;;;;;;;22.84;73.20;100601.63;5054516;28;20028;-44
2022/06/24 10:21:18;;;;;;;10.93;8.45;;;;;;;23.24;71.13;100599.78;5054184;28;20028;-43
2022/06/24 10:23:47;;;;;;;12.57;8.52;;;;;;;24.16;70.58;100597.06;5054036;28;20056;-44
2022/06/24 10:26:21;;;;;;;14.20;8.85;;;;;;;24.18;67.46;100602.88;5053891;28;20032;-47
2022/06/24 10:28:59;;;;;;;14.32;9.55;;;;;;;23.96;66.88;100602.59;5053166;28;20064;-45
2022/06/24 10:31:48;;;;;;;13.82;10.18;;;;;;;;;;5053154;28;20375;-47
2022/06/24 10:34:22;;;;;;;12.77;9.32;;;;;;;24.51;66.67;100593.25;5053423;28;20029;-44
2022/06/24 10:36:49;;;;;;;16.52;9.00;;;;;;;24.41;66.14;100588.06;5053458;28;20028;-44
2022/06/24 10:39:17;;;;;;;11.77;7.95;;;;;;;24.67;66.53;100599.09;5053786;28;20091;-45
2022/06/24 10:41:43;;;;;;;13.75;10.00;;;;;;;24.61;66.55;100589.69;5053861;28;20063;-45
2022/06/24 10:44:25;;;;;;;15.48;10.90;;;;;;;24.13;67.57;100591.59;5053108;28;20036;-43
2022/06/24 10:47:10;;;;;;;15.90;11.33;;;;;;;24.32;68.48;100595.06;5053518;28;20021;-43
2022/06/24 10:50:00;;;;;;;12.05;10.60;;;;;;;25.12;66.64;100593.44;5053094;28;20384;-44
2022/06/24 10:53:00;;;;;;;14.18;10.07;;;;;;;25.01;63.37;100587.53;5054066;28;20029;-44
2022/06/24 10:58:14;;;;;;;15.48;9.95;;;;;;;25.25;63.06;100586.66;4992367;28;20050;-73
2022/06/24 11:00:47;;;;;;;17.10;9.90;;;;;;;25.44;62.77;100587.38;5009527;28;20054;-73
2022/06/24 11:03:16;;;;;;;13.25;8.32;;;;;;;26.04;62.13;100587.38;4994528;28;20030;-72
2022/06/24 11:05:45;;;;;;;12.02;9.43;;;;;;;25.48;61.82;100577.78;5010736;28;20421;-72
2022/06/24 11:08:16;;;;;;;11.60;9.90;;;;;;;25.46;62.39;100581.78;4995000;28;20514;-72
2022/06/24 11:10:44;;;;;;;11.65;7.80;;;;;;;26.10;62.21;100582.75;4994173;28;20113;-72
2022/06/24 11:13:10;;;;;;;12.07;10.10;;;;;;;26.69;58.93;100583.63;4992868;28;20026;-71
2022/06/24 11:15:36;;;;;;;9.25;6.90;;;;;;;27.01;59.97;100584.47;4993808;28;20128;-72
2022/06/24 11:18:13;;;;;;;17.15;10.68;;;;;;;26.47;59.50;100581.72;4993435;28;20034;-73
2022/06/24 11:20:45;;;;;;;15.32;10.70;;;;;;;26.76;57.84;100578.69;4995105;28;20030;-72
2022/06/24 11:23:14;;;;;;;11.43;7.60;;;;;;;26.40;60.89;100572.59;4994353;28;20034;-73
2022/06/24 11:26:07;;;;;;;14.20;8.85;;;;;;;26.10;60.65;100588.03;4995542;28;20027;-73
2022/06/24 11:28:51;;;;;;;9.73;6.75;;;;;;;26.81;60.18;100585.75;4991826;28;20592;-73
2022/06/24 11:31:25;;;;;;;8.40;6.82;;;;;;;26.88;58.62;100578.16;4991860;28;20646;-73